createdAt,value
2023-05-14T00:00:18.102Z,19.83
2023-05-14T00:03:06.541Z,21.15
2023-05-14T00:05:34.583Z,21.33
2023-05-14T00:08:02.876Z,20.77
2023-05-14T00:10:30.790Z,21.23
2023-05-14T00:12:59.088Z,21.13
2023-05-14T00:15:27.197Z,20.25
2023-05-14T00:17:57.762Z,20.85
2023-05-14T00:20:26.146Z,21.85
2023-05-14T00:22:54.293Z,19.63
2023-05-14T00:25:22.107Z,18.40
2023-05-14T00:27:50.321Z,18.85
2023-05-14T00:30:18.145Z,22.63
2023-05-14T00:32:46.225Z,24.27
2023-05-14T00:35:14.238Z,21.80
2023-05-14T00:37:42.594Z,23.00
2023-05-14T00:40:13.131Z,23.98
2023-05-14T00:42:41.454Z,23.92
2023-05-14T00:45:09.984Z,23.15
2023-05-14T00:47:39.501Z,25.15
2023-05-14T00:50:08.453Z,26.52
2023-05-14T00:52:38.238Z,22.25
2023-05-14T00:55:07.407Z,22.67
2023-05-14T00:57:36.547Z,22.15
2023-05-14T01:00:04.983Z,22.40
2023-05-14T01:02:33.299Z,21.45
2023-05-14T01:05:02.102Z,22.85
2023-05-14T01:07:40.662Z,25.30
2023-05-14T01:10:29.774Z,23.90
2023-05-14T01:13:21.039Z,24.40
2023-05-14T01:15:49.827Z,21.83
2023-05-14T01:18:19.667Z,24.20
2023-05-14T01:20:51.184Z,24.67
2023-05-14T01:23:21.633Z,24.52
2023-05-14T01:25:49.843Z,28.10
2023-05-14T01:28:19.380Z,24.27
2023-05-14T01:31:16.555Z,22.92
2023-05-14T01:33:47.653Z,25.15
2023-05-14T01:36:16.015Z,25.50
2023-05-14T01:38:47.536Z,22.90
2023-05-14T01:41:16.732Z,24.30
2023-05-14T01:43:46.219Z,25.40
2023-05-14T01:46:18.030Z,26.42
2023-05-14T01:48:49.365Z,27.85
2023-05-14T01:51:18.634Z,25.73
2023-05-14T01:53:47.774Z,27.63
2023-05-14T01:56:16.117Z,28.05
2023-05-14T01:58:45.192Z,29.50
2023-05-14T02:01:13.434Z,31.65
2023-05-14T02:03:41.834Z,27.58
2023-05-14T02:06:09.784Z,29.75
2023-05-14T02:08:37.990Z,30.73
2023-05-14T02:11:06.006Z,32.42
2023-05-14T02:13:34.394Z,31.67
2023-05-14T02:16:02.475Z,32.25
2023-05-14T02:18:31.413Z,33.55
2023-05-14T02:20:59.480Z,29.85
2023-05-14T02:23:37.761Z,32.38
2023-05-14T02:26:06.236Z,36.33
2023-05-14T02:28:34.517Z,32.17
2023-05-14T02:31:02.446Z,32.58
2023-05-14T02:33:30.982Z,29.30
2023-05-14T02:35:58.960Z,30.63
2023-05-14T02:38:27.446Z,30.05
2023-05-14T02:40:57.620Z,29.30
2023-05-14T02:43:25.855Z,28.60
2023-05-14T02:45:53.686Z,25.80
2023-05-14T02:48:21.896Z,25.83
2023-05-14T02:50:54.813Z,26.45
2023-05-14T02:53:22.932Z,24.17
2023-05-14T02:55:50.897Z,25.25
2023-05-14T02:58:19.355Z,26.92
2023-05-14T03:00:53.738Z,29.65
2023-05-14T03:03:22.752Z,25.15
2023-05-14T03:05:51.239Z,26.20
2023-05-14T03:08:19.419Z,27.60
2023-05-14T03:10:47.249Z,25.35
2023-05-14T03:13:18.002Z,30.25
2023-05-14T03:15:47.031Z,29.63
2023-05-14T03:18:15.325Z,29.95
2023-05-14T03:20:43.179Z,29.38
2023-05-14T03:23:11.475Z,28.15
2023-05-14T03:25:39.446Z,28.15
2023-05-14T03:28:07.971Z,30.92
2023-05-14T03:30:36.385Z,31.83
2023-05-14T03:33:07.056Z,28.67
2023-05-14T03:35:35.022Z,31.58
2023-05-14T03:38:03.228Z,26.77
2023-05-14T03:40:31.075Z,31.70
2023-05-14T03:42:59.379Z,34.88
2023-05-14T03:45:28.853Z,32.22
2023-05-14T03:47:59.856Z,33.45
2023-05-14T03:50:31.444Z,34.10
2023-05-14T03:52:59.821Z,34.10
2023-05-14T03:55:27.760Z,34.83
2023-05-14T03:57:56.213Z,35.22
2023-05-14T04:00:24.534Z,35.13
2023-05-14T04:02:54.625Z,32.95
2023-05-14T04:05:24.884Z,37.75
2023-05-14T04:07:53.273Z,36.55
2023-05-14T04:10:21.694Z,32.45
2023-05-14T04:12:50.236Z,34.33
2023-05-14T04:15:22.183Z,35.72
2023-05-14T04:17:52.407Z,35.30
2023-05-14T04:20:20.763Z,29.95
2023-05-14T04:22:49.413Z,32.88
2023-05-14T04:25:18.622Z,35.00
2023-05-14T04:27:47.097Z,34.25
2023-05-14T04:30:15.375Z,35.22
2023-05-14T04:32:44.556Z,34.95
2023-05-14T04:35:13.256Z,31.35
2023-05-14T04:37:41.753Z,28.38
2023-05-14T04:40:12.889Z,33.15
2023-05-14T04:42:41.311Z,33.03
2023-05-14T04:45:10.108Z,36.67
2023-05-14T04:47:38.578Z,35.80
2023-05-14T04:50:07.268Z,33.72
2023-05-14T04:52:35.746Z,32.53
2023-05-14T04:55:03.923Z,36.63
2023-05-14T04:57:32.157Z,38.20
2023-05-14T05:00:00.198Z,33.65
2023-05-14T05:02:28.857Z,29.63
2023-05-14T05:04:56.790Z,31.73
2023-05-14T05:07:25.207Z,30.63
2023-05-14T05:09:53.184Z,33.33
2023-05-14T05:12:21.701Z,33.15
2023-05-14T05:14:49.846Z,29.60
2023-05-14T05:17:18.584Z,31.13
2023-05-14T05:19:46.871Z,31.90
2023-05-14T05:22:15.902Z,30.50
2023-05-14T05:24:44.116Z,30.17
2023-05-14T05:27:12.854Z,31.83
2023-05-14T05:29:41.352Z,30.35
2023-05-14T05:32:09.838Z,30.25
2023-05-14T05:34:38.219Z,35.00
2023-05-14T05:37:06.920Z,29.17
2023-05-14T05:39:35.475Z,28.65
2023-05-14T05:42:05.535Z,30.33
2023-05-14T05:44:33.864Z,31.77
2023-05-14T05:47:02.361Z,27.75
2023-05-14T05:49:31.112Z,28.10
2023-05-14T05:54:25.086Z,30.85
2023-05-14T05:56:53.373Z,32.97
2023-05-14T05:59:21.775Z,29.67
2023-05-14T06:01:50.125Z,27.00
2023-05-14T06:04:18.119Z,28.05
2023-05-14T06:06:46.467Z,29.88
2023-05-14T06:09:14.694Z,26.15
2023-05-14T06:11:43.117Z,24.58
2023-05-14T06:14:11.074Z,31.27
2023-05-14T06:16:39.494Z,26.35
2023-05-14T06:19:08.483Z,28.20
2023-05-14T06:21:36.945Z,30.20
2023-05-14T06:24:05.164Z,28.35
2023-05-14T06:26:33.366Z,31.23
2023-05-14T06:29:01.546Z,29.85
2023-05-14T06:31:32.072Z,30.70
2023-05-14T06:34:00.050Z,31.85
2023-05-14T06:36:28.439Z,29.45
2023-05-14T06:38:56.476Z,30.58
2023-05-14T06:41:24.672Z,30.08
2023-05-14T06:43:52.797Z,30.70
2023-05-14T06:46:21.451Z,30.58
2023-05-14T06:48:49.448Z,29.60
2023-05-14T06:51:17.762Z,27.70
2023-05-14T06:53:46.890Z,32.92
2023-05-14T06:56:15.174Z,30.13
2023-05-14T06:58:43.234Z,28.33
2023-05-14T07:01:11.549Z,29.92
2023-05-14T07:03:40.490Z,25.73
2023-05-14T07:06:08.687Z,28.88
2023-05-14T07:08:36.527Z,25.85
2023-05-14T07:11:04.820Z,27.90
2023-05-14T07:13:32.699Z,25.85
2023-05-14T07:16:01.013Z,28.92
2023-05-14T07:18:29.057Z,26.55
2023-05-14T07:20:57.617Z,22.20
2023-05-14T07:23:25.446Z,26.67
2023-05-14T07:25:53.731Z,28.00
2023-05-14T07:28:21.679Z,30.00
2023-05-14T07:30:50.081Z,28.95
2023-05-14T07:33:18.096Z,26.63
2023-05-14T07:35:48.092Z,25.98
2023-05-14T07:38:17.064Z,28.88
2023-05-14T07:40:45.525Z,28.33
2023-05-14T07:43:14.484Z,29.48
2023-05-14T07:45:43.018Z,24.90
2023-05-14T07:48:11.519Z,28.67
2023-05-14T07:50:40.233Z,27.77
2023-05-14T07:53:08.876Z,25.88
2023-05-14T07:55:37.355Z,27.13
2023-05-14T07:58:05.253Z,26.58
2023-05-14T08:00:33.745Z,28.15
2023-05-14T08:03:01.848Z,31.60
2023-05-14T08:05:30.397Z,22.90
2023-05-14T08:07:58.370Z,23.10
2023-05-14T08:10:27.339Z,24.40
2023-05-14T08:12:56.110Z,22.38
2023-05-14T08:15:27.075Z,22.92
2023-05-14T08:20:24.570Z,22.70
2023-05-14T08:22:52.820Z,24.42
2023-05-14T08:25:21.171Z,24.10
2023-05-14T08:27:49.408Z,21.33
2023-05-14T08:30:18.223Z,23.20
2023-05-14T08:32:46.365Z,22.10
2023-05-14T08:35:14.856Z,26.13
2023-05-14T08:37:42.834Z,21.77
2023-05-14T08:40:12.470Z,23.58
2023-05-14T08:42:45.150Z,21.00
2023-05-14T08:45:29.328Z,25.00
2023-05-14T08:47:58.688Z,23.48
2023-05-14T08:50:28.339Z,22.90
2023-05-14T08:52:56.917Z,22.70
2023-05-14T08:55:26.700Z,22.25
2023-05-14T08:57:54.812Z,23.35
2023-05-14T09:00:24.010Z,20.33
2023-05-14T09:02:53.227Z,23.35
2023-05-14T09:05:23.088Z,22.02
2023-05-14T09:07:53.721Z,22.58
2023-05-14T09:10:23.056Z,20.60
2023-05-14T09:12:51.864Z,24.20
2023-05-14T09:15:20.335Z,23.02
2023-05-14T09:17:48.817Z,22.02
2023-05-14T09:20:17.322Z,22.23
2023-05-14T09:22:45.382Z,22.80
2023-05-14T09:25:16.975Z,22.88
2023-05-14T09:27:50.344Z,20.70
2023-05-14T09:30:20.713Z,21.40
2023-05-14T09:32:50.398Z,20.58
2023-05-14T09:35:24.245Z,22.90
2023-05-14T09:37:55.580Z,21.67
2023-05-14T09:40:24.998Z,21.58
2023-05-14T09:42:53.257Z,22.55
2023-05-14T09:45:21.733Z,23.60
2023-05-14T09:47:49.803Z,22.65
2023-05-14T09:50:43.682Z,22.27
2023-05-14T09:53:44.710Z,20.58
2023-05-14T09:56:14.330Z,19.20
2023-05-14T09:58:42.623Z,20.20
2023-05-14T10:01:11.780Z,20.13
2023-05-14T10:03:40.091Z,19.65
2023-05-14T10:06:13.475Z,18.20
2023-05-14T10:08:45.013Z,18.45
2023-05-14T10:11:25.236Z,21.63
2023-05-14T10:14:04.708Z,21.30
2023-05-14T10:16:37.982Z,20.30
2023-05-14T10:19:11.294Z,19.17
2023-05-14T10:21:41.687Z,19.98
2023-05-14T10:24:12.956Z,18.63
2023-05-14T10:26:42.141Z,20.52
2023-05-14T10:29:11.572Z,18.52
2023-05-14T10:31:55.575Z,19.08
2023-05-14T10:34:46.730Z,21.50
2023-05-14T10:39:58.857Z,19.63
2023-05-14T10:42:36.207Z,21.60
2023-05-14T10:45:08.408Z,19.33
2023-05-14T10:47:42.024Z,18.23
2023-05-14T10:50:12.966Z,19.02
2023-05-14T10:52:46.367Z,20.20
2023-05-14T10:55:16.213Z,18.80
2023-05-14T10:57:46.292Z,20.10
2023-05-14T11:00:15.200Z,20.48
2023-05-14T11:02:44.897Z,20.45
2023-05-14T11:05:20.820Z,23.30
2023-05-14T11:07:51.979Z,19.90
2023-05-14T11:10:26.233Z,20.80
2023-05-14T11:13:01.461Z,17.23
2023-05-14T11:15:45.282Z,22.77
2023-05-14T11:18:31.569Z,19.17
2023-05-14T11:21:09.223Z,17.98
2023-05-14T11:23:40.466Z,17.88
2023-05-14T11:26:13.630Z,18.35
2023-05-14T11:28:42.612Z,20.63
2023-05-14T11:31:10.940Z,18.38
2023-05-14T11:33:40.768Z,18.60
2023-05-14T11:36:16.110Z,17.52
2023-05-14T11:38:49.211Z,19.77
2023-05-14T11:41:17.351Z,16.15
2023-05-14T11:43:51.735Z,16.08
2023-05-14T11:46:20.796Z,18.38
2023-05-14T11:48:49.224Z,17.88
2023-05-14T11:51:23.387Z,17.10
2023-05-14T11:53:51.895Z,17.65
2023-05-14T11:56:22.766Z,16.45
2023-05-14T11:58:58.405Z,16.15
2023-05-14T12:01:33.924Z,17.33
2023-05-14T12:04:32.031Z,16.42
2023-05-14T12:07:07.753Z,17.75
2023-05-14T12:09:44.216Z,18.98
2023-05-14T12:12:13.314Z,17.23
2023-05-14T12:14:43.456Z,14.77
2023-05-14T12:17:19.032Z,18.80
2023-05-14T12:19:49.585Z,15.30
2023-05-14T12:22:21.129Z,14.85
2023-05-14T12:27:09.587Z,15.95
2023-05-14T12:29:39.197Z,14.60
2023-05-14T12:32:10.960Z,15.52
2023-05-14T12:34:41.315Z,15.60
2023-05-14T12:37:09.215Z,17.05
2023-05-14T12:39:37.737Z,17.92
2023-05-14T12:42:06.036Z,17.00
2023-05-14T12:44:38.472Z,14.35
2023-05-14T12:47:12.358Z,16.25
2023-05-14T12:49:41.066Z,17.70
2023-05-14T12:54:48.294Z,16.67
2023-05-14T12:57:16.368Z,14.52
2023-05-14T12:59:47.713Z,14.93
2023-05-14T13:02:18.931Z,17.65
2023-05-14T13:04:47.308Z,13.07
2023-05-14T13:07:15.641Z,13.38
2023-05-14T13:09:44.154Z,14.45
2023-05-14T13:12:21.103Z,14.63
2023-05-14T13:14:53.373Z,14.60
2023-05-14T13:17:23.971Z,12.40
2023-05-14T13:20:08.917Z,13.60
2023-05-14T13:22:36.953Z,12.68
2023-05-14T13:25:06.070Z,13.38
2023-05-14T13:27:35.965Z,13.60
2023-05-14T13:30:04.620Z,12.85
2023-05-14T13:32:32.560Z,11.85
2023-05-14T13:35:00.811Z,11.52
2023-05-14T13:37:28.826Z,12.55
2023-05-14T13:39:57.145Z,12.82
2023-05-14T13:42:25.091Z,12.57
2023-05-14T13:44:53.276Z,13.95
2023-05-14T13:47:21.152Z,13.05
2023-05-14T13:49:49.419Z,14.45
2023-05-14T13:52:17.455Z,16.73
2023-05-14T13:54:46.066Z,15.73
2023-05-14T13:57:14.269Z,16.13
2023-05-14T13:59:42.681Z,15.23
2023-05-14T14:02:10.556Z,15.88
2023-05-14T14:04:39.080Z,24.48
2023-05-14T14:07:07.151Z,15.85
2023-05-14T14:09:36.883Z,13.45
2023-05-14T14:12:05.477Z,17.75
2023-05-14T14:14:33.792Z,16.02
2023-05-14T14:17:01.843Z,13.68
2023-05-14T14:19:30.130Z,12.93
2023-05-14T14:21:59.252Z,13.52
2023-05-14T14:24:27.602Z,10.82
2023-05-14T14:26:55.701Z,11.57
2023-05-14T14:29:24.962Z,13.35
2023-05-14T14:31:53.178Z,12.73
2023-05-14T14:34:21.986Z,12.18
2023-05-14T14:36:50.261Z,11.40
2023-05-14T14:39:18.897Z,11.43
2023-05-14T14:41:47.867Z,8.18
2023-05-14T14:44:16.719Z,8.43
2023-05-14T14:46:44.700Z,10.18
2023-05-14T14:49:13.239Z,11.27
2023-05-14T14:51:48.053Z,9.38
2023-05-14T14:54:17.012Z,9.80
2023-05-14T14:56:46.144Z,11.40
2023-05-14T14:59:14.453Z,11.32
2023-05-14T15:01:42.882Z,10.15
2023-05-14T15:04:11.275Z,8.82
2023-05-14T15:06:39.460Z,9.88
2023-05-14T15:09:08.099Z,9.63
2023-05-14T15:11:37.409Z,9.60
2023-05-14T15:14:06.288Z,12.07
2023-05-14T15:16:34.319Z,11.07
2023-05-14T15:19:03.016Z,10.95
2023-05-14T15:21:32.406Z,11.18
2023-05-14T15:24:03.111Z,11.30
2023-05-14T15:26:31.368Z,8.70
2023-05-14T15:28:59.877Z,10.20
2023-05-14T15:31:28.062Z,10.20
2023-05-14T15:33:56.960Z,10.43
2023-05-14T15:36:25.204Z,11.23
2023-05-14T15:38:53.492Z,12.48
2023-05-14T15:41:23.203Z,10.60
2023-05-14T15:43:51.912Z,9.48
2023-05-14T15:46:19.793Z,10.50
2023-05-14T15:48:48.156Z,11.77
2023-05-14T15:51:16.007Z,13.43
2023-05-14T15:53:44.272Z,12.13
2023-05-14T15:56:12.205Z,10.95
2023-05-14T15:58:40.493Z,10.35
2023-05-14T16:01:08.428Z,11.73
2023-05-14T16:03:36.931Z,11.27
2023-05-14T16:06:07.931Z,10.57
2023-05-14T16:08:36.205Z,10.27
2023-05-14T16:11:04.372Z,10.95
2023-05-14T16:13:32.783Z,13.52
2023-05-14T16:16:01.544Z,11.57
2023-05-14T16:18:30.202Z,10.18
2023-05-14T16:20:58.500Z,12.10
2023-05-14T16:23:27.384Z,10.80
2023-05-14T16:25:55.321Z,11.80
2023-05-14T16:28:24.019Z,12.38
2023-05-14T16:30:54.915Z,11.07
2023-05-14T16:33:23.344Z,11.20
2023-05-14T16:35:54.707Z,11.23
2023-05-14T16:38:23.270Z,10.80
2023-05-14T16:40:51.322Z,12.65
2023-05-14T16:43:19.618Z,11.90
2023-05-14T16:45:51.085Z,10.63
2023-05-14T16:48:19.531Z,10.57
2023-05-14T16:50:47.513Z,10.20
2023-05-14T16:53:15.872Z,9.73
2023-05-14T16:55:43.895Z,10.65
2023-05-14T16:58:12.025Z,10.88
2023-05-14T17:00:39.985Z,10.85
2023-05-14T17:03:08.215Z,10.20
2023-05-14T17:05:36.239Z,10.85
2023-05-14T17:08:05.320Z,10.23
2023-05-14T17:10:33.542Z,9.55
2023-05-14T17:13:06.134Z,9.90
2023-05-14T17:15:52.916Z,9.52
2023-05-14T17:18:21.378Z,10.10
2023-05-14T17:20:50.144Z,9.48
2023-05-14T17:23:19.250Z,11.32
2023-05-14T17:25:47.553Z,10.35
2023-05-14T17:28:15.503Z,10.52
2023-05-14T17:30:44.015Z,9.18
2023-05-14T17:33:15.176Z,9.13
2023-05-14T17:35:45.977Z,9.98
2023-05-14T17:38:14.056Z,11.00
2023-05-14T17:40:42.930Z,10.25
2023-05-14T17:43:12.071Z,9.68
2023-05-14T17:45:52.966Z,9.30
2023-05-14T17:48:24.731Z,9.45
2023-05-14T17:50:52.871Z,10.23
2023-05-14T17:53:21.117Z,9.20
2023-05-14T17:55:50.234Z,9.70
2023-05-14T17:58:18.108Z,12.68
2023-05-14T18:00:46.430Z,11.05
2023-05-14T18:03:15.177Z,9.40
2023-05-14T18:05:43.434Z,9.80
2023-05-14T18:08:11.220Z,10.88
2023-05-14T18:10:39.512Z,9.40
2023-05-14T18:13:07.549Z,9.20
2023-05-14T18:15:38.810Z,8.63
2023-05-14T18:18:07.029Z,10.45
2023-05-14T18:20:36.967Z,9.68
2023-05-14T18:23:05.235Z,13.57
2023-05-14T18:25:35.206Z,16.15
2023-05-14T18:28:11.887Z,15.73
2023-05-14T18:30:40.337Z,13.15
2023-05-14T18:33:08.444Z,17.05
2023-05-14T18:35:36.704Z,22.20
2023-05-14T18:38:04.638Z,23.67
2023-05-14T18:40:35.904Z,25.15
2023-05-14T18:43:03.842Z,21.58
2023-05-14T18:45:33.024Z,19.38
2023-05-14T18:48:01.405Z,24.55
2023-05-14T18:50:31.074Z,20.08
2023-05-14T18:53:14.570Z,18.50
2023-05-14T18:55:44.397Z,24.65
2023-05-14T18:58:14.500Z,24.80
2023-05-14T19:00:49.830Z,23.42
2023-05-14T19:03:20.402Z,24.52
2023-05-14T19:05:50.673Z,26.85
2023-05-14T19:08:18.712Z,24.88
2023-05-14T19:10:49.680Z,25.63
2023-05-14T19:13:17.790Z,26.52
2023-05-14T19:15:46.050Z,29.67
2023-05-14T19:18:14.025Z,28.67
2023-05-14T19:20:42.591Z,31.30
2023-05-14T19:23:10.535Z,26.58
2023-05-14T19:25:38.906Z,27.50
2023-05-14T19:28:06.898Z,26.70
2023-05-14T19:30:35.508Z,28.58
2023-05-14T19:33:03.677Z,30.88
2023-05-14T19:35:32.036Z,28.70
2023-05-14T19:38:00.260Z,29.70
2023-05-14T19:40:28.819Z,26.65
2023-05-14T19:42:56.931Z,26.85
2023-05-14T19:45:25.252Z,28.30
2023-05-14T19:47:53.679Z,28.70
2023-05-14T19:50:21.949Z,25.88
2023-05-14T19:52:50.023Z,27.00
2023-05-14T19:55:19.651Z,27.05
2023-05-14T20:00:19.538Z,28.75
2023-05-14T20:02:47.975Z,25.15
2023-05-14T20:05:16.866Z,25.27
2023-05-14T20:07:45.080Z,24.23
2023-05-14T20:10:14.263Z,25.10
2023-05-14T20:12:42.660Z,23.98
2023-05-14T20:15:35.126Z,24.52
2023-05-14T20:18:13.324Z,25.20
2023-05-14T20:20:42.939Z,25.50
2023-05-14T20:23:11.714Z,22.90
2023-05-14T20:25:41.742Z,23.67
2023-05-14T20:28:13.450Z,24.45
2023-05-14T20:30:42.729Z,24.02
2023-05-14T20:33:10.829Z,23.58
2023-05-14T20:35:40.928Z,22.70
2023-05-14T20:38:08.953Z,21.65
2023-05-14T20:40:37.427Z,23.95
2023-05-14T20:43:05.663Z,21.35
2023-05-14T20:45:34.470Z,21.77
2023-05-14T20:48:12.334Z,20.23
2023-05-14T20:50:41.067Z,21.30
2023-05-14T20:53:09.268Z,21.65
2023-05-14T20:55:37.790Z,20.48
2023-05-14T20:58:05.717Z,19.27
2023-05-14T21:00:35.451Z,15.80
2023-05-14T21:03:04.417Z,12.68
2023-05-14T21:05:33.056Z,10.15
2023-05-14T21:08:01.127Z,9.60
2023-05-14T21:10:30.138Z,6.78
2023-05-14T21:13:00.453Z,7.13
2023-05-14T21:15:30.716Z,5.55
2023-05-14T21:17:58.767Z,5.00
2023-05-14T21:20:27.378Z,5.95
2023-05-14T21:22:55.583Z,5.70
2023-05-14T21:25:27.552Z,5.10
2023-05-14T21:27:56.013Z,4.68
2023-05-14T21:30:24.299Z,5.75
2023-05-14T21:32:52.480Z,4.28
2023-05-14T21:35:22.025Z,4.57
2023-05-14T21:37:50.405Z,4.65
2023-05-14T21:40:19.342Z,5.53
2023-05-14T21:42:48.113Z,4.00
2023-05-14T21:45:21.108Z,5.00
2023-05-14T21:47:51.410Z,4.15
2023-05-14T21:50:20.156Z,4.80
2023-05-14T21:52:48.419Z,4.78
2023-05-14T21:55:16.971Z,5.75
2023-05-14T21:57:49.592Z,4.45
2023-05-14T22:00:23.552Z,5.93
2023-05-14T22:02:53.169Z,5.25
2023-05-14T22:05:22.546Z,4.85
2023-05-14T22:07:50.879Z,3.88
2023-05-14T22:10:23.187Z,4.40
2023-05-14T22:12:54.299Z,3.88
2023-05-14T22:15:24.260Z,4.32
2023-05-14T22:17:53.262Z,4.05
2023-05-14T22:20:24.921Z,5.72
2023-05-14T22:22:53.679Z,3.40
2023-05-14T22:25:22.959Z,4.57
2023-05-14T22:27:51.293Z,3.47
2023-05-14T22:30:20.122Z,4.07
2023-05-14T22:32:48.768Z,3.00
2023-05-14T22:35:17.715Z,4.32
2023-05-14T22:37:46.607Z,3.83
2023-05-14T22:40:15.330Z,3.08
2023-05-14T22:42:43.869Z,4.22
2023-05-14T22:45:12.371Z,3.72
2023-05-14T22:47:40.990Z,3.88
2023-05-14T22:50:11.625Z,5.35
2023-05-14T22:52:40.415Z,4.40
2023-05-14T22:55:09.544Z,4.57
2023-05-14T22:57:37.788Z,3.75
2023-05-14T23:00:08.134Z,4.63
2023-05-14T23:02:36.683Z,3.85
2023-05-14T23:05:07.031Z,6.47
2023-05-14T23:07:35.695Z,4.15
2023-05-14T23:10:04.516Z,5.03
2023-05-14T23:12:32.917Z,4.25
2023-05-14T23:15:01.800Z,4.13
2023-05-14T23:17:30.443Z,5.30
2023-05-14T23:19:59.228Z,4.10
2023-05-14T23:22:30.077Z,4.38
2023-05-14T23:27:26.626Z,4.80
2023-05-14T23:29:55.263Z,3.95
2023-05-14T23:32:24.489Z,3.92
2023-05-14T23:34:56.906Z,4.00
2023-05-14T23:37:28.564Z,5.13
2023-05-14T23:39:57.251Z,6.30
2023-05-14T23:42:25.724Z,4.60
2023-05-14T23:44:54.097Z,4.57
2023-05-14T23:47:23.325Z,5.03
2023-05-14T23:49:52.121Z,4.85
2023-05-14T23:52:21.766Z,5.63
2023-05-14T23:54:50.457Z,5.03
2023-05-14T23:57:18.906Z,5.18
2023-05-14T23:59:47.871Z,4.50
